sensor_id;sensor_type;location;lat;lon;timestamp;P1;durP1;ratioP1;P2;durP2;ratioP2
20230;SDS011;10274;49.022;9.338;2023-06-14T00:01:41;4.13;;;2.73;;
20230;SDS011;10274;49.022;9.338;2023-06-14T00:04:10;3.60;;;3.00;;
20230;SDS011;10274;49.022;9.338;2023-06-14T00:06:37;3.60;;;2.77;;
20230;SDS011;10274;49.022;9.338;2023-06-14T00:09:04;4.37;;;2.90;;
20230;SDS011;10274;49.022;9.338;2023-06-14T00:11:33;4.57;;;2.73;;
20230;SDS011;10274;49.022;9.338;2023-06-14T00:14:01;5.77;;;2.97;;
20230;SDS011;10274;49.022;9.338;2023-06-14T00:16:28;3.40;;;3.10;;
20230;SDS011;10274;49.022;9.338;2023-06-14T00:18:55;2.97;;;2.60;;
20230;SDS011;10274;49.022;9.338;2023-06-14T00:21:22;3.10;;;2.63;;
20230;SDS011;10274;49.022;9.338;2023-06-14T00:23:49;4.23;;;3.30;;
20230;SDS011;10274;49.022;9.338;2023-06-14T00:26:16;2.80;;;2.60;;
20230;SDS011;10274;49.022;9.338;2023-06-14T00:28:42;3.53;;;2.77;;
20230;SDS011;10274;49.022;9.338;2023-06-14T00:31:10;3.23;;;2.70;;
20230;SDS011;10274;49.022;9.338;2023-06-14T00:33:37;3.40;;;2.80;;
20230;SDS011;10274;49.022;9.338;2023-06-14T00:36:04;3.57;;;2.57;;
20230;SDS011;10274;49.022;9.338;2023-06-14T00:38:31;4.67;;;3.10;;
20230;SDS011;10274;49.022;9.338;2023-06-14T00:40:58;3.57;;;2.63;;
20230;SDS011;10274;49.022;9.338;2023-06-14T00:43:25;3.30;;;2.60;;
20230;SDS011;10274;49.022;9.338;2023-06-14T00:45:52;4.13;;;2.93;;
20230;SDS011;10274;49.022;9.338;2023-06-14T00:48:20;3.10;;;2.80;;
20230;SDS011;10274;49.022;9.338;2023-06-14T00:50:48;4.67;;;2.87;;
20230;SDS011;10274;49.022;9.338;2023-06-14T00:53:16;3.30;;;2.90;;
20230;SDS011;10274;49.022;9.338;2023-06-14T00:55:43;3.77;;;2.90;;
20230;SDS011;10274;49.022;9.338;2023-06-14T00:58:10;3.00;;;2.80;;
20230;SDS011;10274;49.022;9.338;2023-06-14T01:00:37;3.13;;;2.77;;
20230;SDS011;10274;49.022;9.338;2023-06-14T01:03:04;6.37;;;3.10;;
20230;SDS011;10274;49.022;9.338;2023-06-14T01:05:32;3.30;;;2.67;;
20230;SDS011;10274;49.022;9.338;2023-06-14T01:08:05;4.33;;;3.13;;
20230;SDS011;10274;49.022;9.338;2023-06-14T01:10:47;3.17;;;2.87;;
20230;SDS011;10274;49.022;9.338;2023-06-14T01:13:19;4.37;;;3.20;;
20230;SDS011;10274;49.022;9.338;2023-06-14T01:15:49;3.80;;;3.13;;
20230;SDS011;10274;49.022;9.338;2023-06-14T01:18:18;4.33;;;3.00;;
20230;SDS011;10274;49.022;9.338;2023-06-14T01:20:46;3.73;;;3.33;;
20230;SDS011;10274;49.022;9.338;2023-06-14T01:23:16;3.27;;;2.67;;
20230;SDS011;10274;49.022;9.338;2023-06-14T01:25:42;3.73;;;3.00;;
20230;SDS011;10274;49.022;9.338;2023-06-14T01:28:10;3.13;;;2.70;;
20230;SDS011;10274;49.022;9.338;2023-06-14T01:30:38;3.03;;;2.53;;
20230;SDS011;10274;49.022;9.338;2023-06-14T01:33:10;3.20;;;2.90;;
20230;SDS011;10274;49.022;9.338;2023-06-14T01:35:37;2.80;;;2.60;;
20230;SDS011;10274;49.022;9.338;2023-06-14T01:38:04;3.33;;;2.97;;
20230;SDS011;10274;49.022;9.338;2023-06-14T01:40:34;2.97;;;2.60;;
20230;SDS011;10274;49.022;9.338;2023-06-14T01:43:01;4.33;;;3.03;;
20230;SDS011;10274;49.022;9.338;2023-06-14T01:45:29;3.30;;;3.00;;
20230;SDS011;10274;49.022;9.338;2023-06-14T01:47:56;3.40;;;3.10;;
20230;SDS011;10274;49.022;9.338;2023-06-14T01:50:23;3.53;;;2.60;;
20230;SDS011;10274;49.022;9.338;2023-06-14T01:52:54;3.33;;;3.03;;
20230;SDS011;10274;49.022;9.338;2023-06-14T01:55:21;3.63;;;2.77;;
20230;SDS011;10274;49.022;9.338;2023-06-14T01:57:51;3.30;;;2.90;;
20230;SDS011;10274;49.022;9.338;2023-06-14T02:00:18;3.03;;;2.73;;
20230;SDS011;10274;49.022;9.338;2023-06-14T02:02:45;3.40;;;3.10;;
20230;SDS011;10274;49.022;9.338;2023-06-14T02:05:12;3.60;;;3.20;;
20230;SDS011;10274;49.022;9.338;2023-06-14T02:07:40;3.40;;;3.10;;
20230;SDS011;10274;49.022;9.338;2023-06-14T02:10:07;4.00;;;3.40;;
20230;SDS011;10274;49.022;9.338;2023-06-14T02:12:34;4.60;;;3.03;;
20230;SDS011;10274;49.022;9.338;2023-06-14T02:15:02;3.10;;;2.80;;
20230;SDS011;10274;49.022;9.338;2023-06-14T02:17:30;2.93;;;2.73;;
20230;SDS011;10274;49.022;9.338;2023-06-14T02:19:57;4.07;;;3.10;;
20230;SDS011;10274;49.022;9.338;2023-06-14T02:22:24;3.23;;;2.93;;
20230;SDS011;10274;49.022;9.338;2023-06-14T02:24:51;3.47;;;3.17;;
20230;SDS011;10274;49.022;9.338;2023-06-14T02:27:18;3.80;;;3.17;;
20230;SDS011;10274;49.022;9.338;2023-06-14T02:29:44;2.90;;;2.70;;
20230;SDS011;10274;49.022;9.338;2023-06-14T02:32:12;3.50;;;3.20;;
20230;SDS011;10274;49.022;9.338;2023-06-14T02:34:39;3.37;;;2.97;;
20230;SDS011;10274;49.022;9.338;2023-06-14T02:37:06;6.10;;;3.47;;
20230;SDS011;10274;49.022;9.338;2023-06-14T02:39:33;4.27;;;3.40;;
20230;SDS011;10274;49.022;9.338;2023-06-14T02:42:00;5.77;;;3.60;;
20230;SDS011;10274;49.022;9.338;2023-06-14T02:44:26;5.10;;;3.33;;
20230;SDS011;10274;49.022;9.338;2023-06-14T02:46:54;3.70;;;3.30;;
20230;SDS011;10274;49.022;9.338;2023-06-14T02:49:22;3.93;;;3.53;;
20230;SDS011;10274;49.022;9.338;2023-06-14T02:51:50;5.23;;;3.30;;
20230;SDS011;10274;49.022;9.338;2023-06-14T02:54:16;3.43;;;2.97;;
20230;SDS011;10274;49.022;9.338;2023-06-14T02:56:43;3.83;;;3.00;;
20230;SDS011;10274;49.022;9.338;2023-06-14T02:59:10;3.30;;;3.00;;
20230;SDS011;10274;49.022;9.338;2023-06-14T03:01:38;5.00;;;3.30;;
20230;SDS011;10274;49.022;9.338;2023-06-14T03:04:06;3.53;;;3.23;;
20230;SDS011;10274;49.022;9.338;2023-06-14T03:06:34;3.43;;;3.07;;
20230;SDS011;10274;49.022;9.338;2023-06-14T03:09:01;3.33;;;3.03;;
20230;SDS011;10274;49.022;9.338;2023-06-14T03:11:29;4.00;;;3.37;;
20230;SDS011;10274;49.022;9.338;2023-06-14T03:13:56;3.77;;;3.30;;
20230;SDS011;10274;49.022;9.338;2023-06-14T03:16:23;5.37;;;3.30;;
20230;SDS011;10274;49.022;9.338;2023-06-14T03:18:50;3.30;;;3.00;;
20230;SDS011;10274;49.022;9.338;2023-06-14T03:21:17;3.57;;;2.90;;
20230;SDS011;10274;49.022;9.338;2023-06-14T03:23:47;3.63;;;3.20;;
20230;SDS011;10274;49.022;9.338;2023-06-14T03:26:14;3.90;;;3.33;;
20230;SDS011;10274;49.022;9.338;2023-06-14T03:28:42;3.83;;;3.30;;
20230;SDS011;10274;49.022;9.338;2023-06-14T03:31:09;3.50;;;3.20;;
20230;SDS011;10274;49.022;9.338;2023-06-14T03:33:36;3.47;;;3.17;;
20230;SDS011;10274;49.022;9.338;2023-06-14T03:36:03;3.93;;;3.40;;
20230;SDS011;10274;49.022;9.338;2023-06-14T03:38:30;3.70;;;3.40;;
20230;SDS011;10274;49.022;9.338;2023-06-14T03:40:58;4.80;;;3.63;;
20230;SDS011;10274;49.022;9.338;2023-06-14T03:43:24;5.30;;;3.20;;
20230;SDS011;10274;49.022;9.338;2023-06-14T03:45:51;3.40;;;3.10;;
20230;SDS011;10274;49.022;9.338;2023-06-14T03:48:18;3.30;;;3.00;;
20230;SDS011;10274;49.022;9.338;2023-06-14T03:50:45;3.60;;;3.30;;
20230;SDS011;10274;49.022;9.338;2023-06-14T03:53:12;4.10;;;3.70;;
20230;SDS011;10274;49.022;9.338;2023-06-14T03:55:39;3.73;;;3.40;;
20230;SDS011;10274;49.022;9.338;2023-06-14T03:58:07;3.70;;;3.13;;
20230;SDS011;10274;49.022;9.338;2023-06-14T04:00:34;4.00;;;3.60;;
20230;SDS011;10274;49.022;9.338;2023-06-14T04:03:01;3.80;;;3.07;;
20230;SDS011;10274;49.022;9.338;2023-06-14T04:05:30;4.30;;;3.37;;
20230;SDS011;10274;49.022;9.338;2023-06-14T04:07:57;4.10;;;3.60;;
20230;SDS011;10274;49.022;9.338;2023-06-14T04:10:25;3.83;;;3.40;;
20230;SDS011;10274;49.022;9.338;2023-06-14T04:12:52;4.07;;;3.53;;
20230;SDS011;10274;49.022;9.338;2023-06-14T04:15:20;3.67;;;3.37;;
20230;SDS011;10274;49.022;9.338;2023-06-14T04:17:47;3.40;;;3.10;;
20230;SDS011;10274;49.022;9.338;2023-06-14T04:20:14;3.80;;;3.50;;
20230;SDS011;10274;49.022;9.338;2023-06-14T04:22:42;4.30;;;3.90;;
20230;SDS011;10274;49.022;9.338;2023-06-14T04:25:09;4.40;;;3.10;;
20230;SDS011;10274;49.022;9.338;2023-06-14T04:27:37;5.67;;;3.47;;
20230;SDS011;10274;49.022;9.338;2023-06-14T04:30:05;3.43;;;3.07;;
20230;SDS011;10274;49.022;9.338;2023-06-14T04:32:33;4.53;;;3.20;;
20230;SDS011;10274;49.022;9.338;2023-06-14T04:35:04;3.70;;;3.23;;
20230;SDS011;10274;49.022;9.338;2023-06-14T04:37:31;4.67;;;3.80;;
20230;SDS011;10274;49.022;9.338;2023-06-14T04:39:58;3.43;;;3.10;;
20230;SDS011;10274;49.022;9.338;2023-06-14T04:42:25;3.60;;;3.30;;
20230;SDS011;10274;49.022;9.338;2023-06-14T04:44:56;3.90;;;3.53;;
20230;SDS011;10274;49.022;9.338;2023-06-14T04:47:23;3.80;;;3.20;;
20230;SDS011;10274;49.022;9.338;2023-06-14T04:49:55;5.07;;;3.27;;
20230;SDS011;10274;49.022;9.338;2023-06-14T04:52:22;3.10;;;2.87;;
20230;SDS011;10274;49.022;9.338;2023-06-14T04:54:51;3.80;;;3.50;;
20230;SDS011;10274;49.022;9.338;2023-06-14T04:57:19;3.80;;;3.50;;
20230;SDS011;10274;49.022;9.338;2023-06-14T04:59:47;4.00;;;3.37;;
20230;SDS011;10274;49.022;9.338;2023-06-14T05:02:20;3.73;;;3.40;;
20230;SDS011;10274;49.022;9.338;2023-06-14T05:04:48;3.97;;;3.10;;
20230;SDS011;10274;49.022;9.338;2023-06-14T05:07:16;4.43;;;3.40;;
20230;SDS011;10274;49.022;9.338;2023-06-14T05:09:43;4.57;;;3.50;;
20230;SDS011;10274;49.022;9.338;2023-06-14T05:12:10;4.80;;;3.63;;
20230;SDS011;10274;49.022;9.338;2023-06-14T05:14:37;3.90;;;3.47;;
20230;SDS011;10274;49.022;9.338;2023-06-14T05:17:04;3.93;;;3.53;;
20230;SDS011;10274;49.022;9.338;2023-06-14T05:19:31;5.70;;;3.63;;
20230;SDS011;10274;49.022;9.338;2023-06-14T05:21:58;4.30;;;3.27;;
20230;SDS011;10274;49.022;9.338;2023-06-14T05:24:26;3.80;;;3.50;;
20230;SDS011;10274;49.022;9.338;2023-06-14T05:26:54;4.63;;;3.90;;
20230;SDS011;10274;49.022;9.338;2023-06-14T05:29:21;3.70;;;3.40;;
20230;SDS011;10274;49.022;9.338;2023-06-14T05:31:48;4.90;;;3.77;;
20230;SDS011;10274;49.022;9.338;2023-06-14T05:34:14;5.17;;;3.80;;
20230;SDS011;10274;49.022;9.338;2023-06-14T05:36:41;3.87;;;3.47;;
20230;SDS011;10274;49.022;9.338;2023-06-14T05:39:08;4.17;;;3.67;;
20230;SDS011;10274;49.022;9.338;2023-06-14T05:41:36;3.90;;;3.43;;
20230;SDS011;10274;49.022;9.338;2023-06-14T05:44:03;4.93;;;3.90;;
20230;SDS011;10274;49.022;9.338;2023-06-14T05:46:30;6.40;;;3.73;;
20230;SDS011;10274;49.022;9.338;2023-06-14T05:48:57;4.37;;;3.37;;
20230;SDS011;10274;49.022;9.338;2023-06-14T05:51:23;4.30;;;3.50;;
20230;SDS011;10274;49.022;9.338;2023-06-14T05:53:51;5.70;;;3.90;;
20230;SDS011;10274;49.022;9.338;2023-06-14T05:56:18;4.33;;;3.30;;
20230;SDS011;10274;49.022;9.338;2023-06-14T05:58:46;4.60;;;3.73;;
20230;SDS011;10274;49.022;9.338;2023-06-14T06:01:13;3.97;;;3.17;;
20230;SDS011;10274;49.022;9.338;2023-06-14T06:03:41;5.43;;;3.50;;
20230;SDS011;10274;49.022;9.338;2023-06-14T06:06:11;4.70;;;3.30;;
20230;SDS011;10274;49.022;9.338;2023-06-14T06:08:37;4.37;;;3.43;;
20230;SDS011;10274;49.022;9.338;2023-06-14T06:11:05;3.70;;;3.40;;
20230;SDS011;10274;49.022;9.338;2023-06-14T06:13:32;4.47;;;3.33;;
20230;SDS011;10274;49.022;9.338;2023-06-14T06:16:01;4.37;;;3.13;;
20230;SDS011;10274;49.022;9.338;2023-06-14T06:18:28;3.20;;;2.90;;
20230;SDS011;10274;49.022;9.338;2023-06-14T06:20:54;3.83;;;3.33;;
20230;SDS011;10274;49.022;9.338;2023-06-14T06:23:21;5.93;;;4.03;;
20230;SDS011;10274;49.022;9.338;2023-06-14T06:25:48;3.37;;;3.07;;
20230;SDS011;10274;49.022;9.338;2023-06-14T06:28:15;3.97;;;3.57;;
20230;SDS011;10274;49.022;9.338;2023-06-14T06:30:41;3.33;;;3.03;;
20230;SDS011;10274;49.022;9.338;2023-06-14T06:33:09;3.83;;;3.40;;
20230;SDS011;10274;49.022;9.338;2023-06-14T06:35:37;3.60;;;3.10;;
20230;SDS011;10274;49.022;9.338;2023-06-14T06:38:03;3.47;;;3.17;;
20230;SDS011;10274;49.022;9.338;2023-06-14T06:40:30;5.30;;;3.93;;
20230;SDS011;10274;49.022;9.338;2023-06-14T06:42:57;3.50;;;2.93;;
20230;SDS011;10274;49.022;9.338;2023-06-14T06:45:23;3.67;;;3.20;;
20230;SDS011;10274;49.022;9.338;2023-06-14T06:47:50;3.67;;;3.27;;
20230;SDS011;10274;49.022;9.338;2023-06-14T06:50:18;3.40;;;3.10;;
20230;SDS011;10274;49.022;9.338;2023-06-14T06:52:48;6.40;;;3.33;;
20230;SDS011;10274;49.022;9.338;2023-06-14T06:55:15;3.70;;;2.93;;
20230;SDS011;10274;49.022;9.338;2023-06-14T06:57:42;5.17;;;2.70;;
20230;SDS011;10274;49.022;9.338;2023-06-14T07:00:09;3.37;;;3.07;;
20230;SDS011;10274;49.022;9.338;2023-06-14T07:02:37;3.20;;;2.90;;
20230;SDS011;10274;49.022;9.338;2023-06-14T07:05:04;3.30;;;3.00;;
20230;SDS011;10274;49.022;9.338;2023-06-14T07:07:32;2.80;;;2.60;;
20230;SDS011;10274;49.022;9.338;2023-06-14T07:10:00;3.23;;;2.93;;
20230;SDS011;10274;49.022;9.338;2023-06-14T07:12:29;3.40;;;3.10;;
20230;SDS011;10274;49.022;9.338;2023-06-14T07:14:56;3.47;;;3.17;;
20230;SDS011;10274;49.022;9.338;2023-06-14T07:17:23;3.47;;;2.83;;
20230;SDS011;10274;49.022;9.338;2023-06-14T07:19:50;3.13;;;2.83;;
20230;SDS011;10274;49.022;9.338;2023-06-14T07:22:18;4.87;;;3.50;;
20230;SDS011;10274;49.022;9.338;2023-06-14T07:24:46;3.17;;;2.97;;
20230;SDS011;10274;49.022;9.338;2023-06-14T07:27:13;3.63;;;2.97;;
20230;SDS011;10274;49.022;9.338;2023-06-14T07:29:40;3.53;;;2.80;;
20230;SDS011;10274;49.022;9.338;2023-06-14T07:32:07;3.43;;;3.00;;
20230;SDS011;10274;49.022;9.338;2023-06-14T07:34:33;4.73;;;2.97;;
20230;SDS011;10274;49.022;9.338;2023-06-14T07:37:00;3.00;;;2.80;;
20230;SDS011;10274;49.022;9.338;2023-06-14T07:39:27;3.57;;;2.77;;
20230;SDS011;10274;49.022;9.338;2023-06-14T07:41:55;4.13;;;3.17;;
20230;SDS011;10274;49.022;9.338;2023-06-14T07:44:22;3.43;;;2.73;;
20230;SDS011;10274;49.022;9.338;2023-06-14T07:46:49;4.13;;;3.27;;
20230;SDS011;10274;49.022;9.338;2023-06-14T07:49:15;3.90;;;3.10;;
20230;SDS011;10274;49.022;9.338;2023-06-14T07:51:42;2.67;;;2.47;;
20230;SDS011;10274;49.022;9.338;2023-06-14T07:54:11;3.33;;;2.83;;
20230;SDS011;10274;49.022;9.338;2023-06-14T07:56:37;3.23;;;2.83;;
20230;SDS011;10274;49.022;9.338;2023-06-14T07:59:05;3.83;;;3.10;;
20230;SDS011;10274;49.022;9.338;2023-06-14T08:01:32;3.57;;;3.07;;
20230;SDS011;10274;49.022;9.338;2023-06-14T08:03:59;3.70;;;3.07;;
20230;SDS011;10274;49.022;9.338;2023-06-14T08:06:26;3.67;;;2.80;;
20230;SDS011;10274;49.022;9.338;2023-06-14T08:08:52;3.77;;;2.90;;
20230;SDS011;10274;49.022;9.338;2023-06-14T08:11:19;3.93;;;3.53;;
20230;SDS011;10274;49.022;9.338;2023-06-14T08:13:46;3.17;;;2.83;;
20230;SDS011;10274;49.022;9.338;2023-06-14T08:16:14;3.13;;;2.83;;
20230;SDS011;10274;49.022;9.338;2023-06-14T08:18:41;2.90;;;2.60;;
20230;SDS011;10274;49.022;9.338;2023-06-14T08:21:07;3.43;;;2.93;;
20230;SDS011;10274;49.022;9.338;2023-06-14T08:23:34;3.40;;;2.80;;
20230;SDS011;10274;49.022;9.338;2023-06-14T08:26:01;4.75;;;2.70;;
20230;SDS011;10274;49.022;9.338;2023-06-14T08:28:29;2.70;;;2.50;;
20230;SDS011;10274;49.022;9.338;2023-06-14T08:30:55;2.72;;;2.45;;
20230;SDS011;10274;49.022;9.338;2023-06-14T08:33:23;3.85;;;2.85;;
20230;SDS011;10274;49.022;9.338;2023-06-14T08:35:50;5.35;;;2.75;;
20230;SDS011;10274;49.022;9.338;2023-06-14T08:38:17;3.63;;;2.75;;
20230;SDS011;10274;49.022;9.338;2023-06-14T08:40:43;3.03;;;2.72;;
20230;SDS011;10274;49.022;9.338;2023-06-14T08:43:13;3.78;;;2.70;;
20230;SDS011;10274;49.022;9.338;2023-06-14T08:45:40;3.42;;;2.80;;
20230;SDS011;10274;49.022;9.338;2023-06-14T08:48:07;3.13;;;2.83;;
20230;SDS011;10274;49.022;9.338;2023-06-14T08:50:36;3.40;;;2.80;;
20230;SDS011;10274;49.022;9.338;2023-06-14T08:53:06;4.32;;;3.03;;
20230;SDS011;10274;49.022;9.338;2023-06-14T08:55:38;2.92;;;2.65;;
20230;SDS011;10274;49.022;9.338;2023-06-14T08:58:05;3.00;;;2.70;;
20230;SDS011;10274;49.022;9.338;2023-06-14T09:00:34;3.47;;;2.60;;
20230;SDS011;10274;49.022;9.338;2023-06-14T09:03:03;3.08;;;2.78;;
20230;SDS011;10274;49.022;9.338;2023-06-14T09:05:30;3.17;;;2.70;;
20230;SDS011;10274;49.022;9.338;2023-06-14T09:07:58;3.30;;;2.40;;
20230;SDS011;10274;49.022;9.338;2023-06-14T09:10:26;4.65;;;2.70;;
20230;SDS011;10274;49.022;9.338;2023-06-14T09:12:54;2.85;;;2.53;;
20230;SDS011;10274;49.022;9.338;2023-06-14T09:15:21;2.85;;;2.53;;
20230;SDS011;10274;49.022;9.338;2023-06-14T09:17:48;3.20;;;2.73;;
20230;SDS011;10274;49.022;9.338;2023-06-14T09:20:15;3.55;;;2.80;;
20230;SDS011;10274;49.022;9.338;2023-06-14T09:22:43;2.92;;;2.60;;
20230;SDS011;10274;49.022;9.338;2023-06-14T09:25:12;2.67;;;2.47;;
20230;SDS011;10274;49.022;9.338;2023-06-14T09:27:40;3.05;;;2.72;;
20230;SDS011;10274;49.022;9.338;2023-06-14T09:30:08;3.00;;;2.50;;
20230;SDS011;10274;49.022;9.338;2023-06-14T09:32:36;2.72;;;2.45;;
20230;SDS011;10274;49.022;9.338;2023-06-14T09:35:04;2.72;;;2.53;;
20230;SDS011;10274;49.022;9.338;2023-06-14T09:37:32;2.58;;;2.38;;
20230;SDS011;10274;49.022;9.338;2023-06-14T09:39:59;2.65;;;2.45;;
20230;SDS011;10274;49.022;9.338;2023-06-14T09:42:27;2.90;;;2.53;;
20230;SDS011;10274;49.022;9.338;2023-06-14T09:44:55;2.90;;;2.60;;
20230;SDS011;10274;49.022;9.338;2023-06-14T09:47:23;3.67;;;2.47;;
20230;SDS011;10274;49.022;9.338;2023-06-14T09:49:50;3.10;;;2.33;;
20230;SDS011;10274;49.022;9.338;2023-06-14T09:52:17;2.70;;;2.50;;
20230;SDS011;10274;49.022;9.338;2023-06-14T09:54:45;3.70;;;2.80;;
20230;SDS011;10274;49.022;9.338;2023-06-14T09:57:14;2.60;;;2.25;;
20230;SDS011;10274;49.022;9.338;2023-06-14T09:59:44;2.60;;;2.40;;
20230;SDS011;10274;49.022;9.338;2023-06-14T10:02:14;3.20;;;2.40;;
20230;SDS011;10274;49.022;9.338;2023-06-14T10:04:51;4.88;;;2.65;;
20230;SDS011;10274;49.022;9.338;2023-06-14T10:07:22;3.10;;;2.30;;
20230;SDS011;10274;49.022;9.338;2023-06-14T10:09:52;2.60;;;2.40;;
20230;SDS011;10274;49.022;9.338;2023-06-14T10:12:20;2.87;;;2.30;;
20230;SDS011;10274;49.022;9.338;2023-06-14T10:14:49;3.88;;;2.70;;
20230;SDS011;10274;49.022;9.338;2023-06-14T10:17:20;2.80;;;2.45;;
20230;SDS011;10274;49.022;9.338;2023-06-14T10:19:54;2.75;;;2.45;;
20230;SDS011;10274;49.022;9.338;2023-06-14T10:22:30;4.63;;;2.58;;
20230;SDS011;10274;49.022;9.338;2023-06-14T10:25:01;2.38;;;2.17;;
20230;SDS011;10274;49.022;9.338;2023-06-14T10:27:37;3.75;;;2.58;;
20230;SDS011;10274;49.022;9.338;2023-06-14T10:30:07;6.25;;;2.80;;
20230;SDS011;10274;49.022;9.338;2023-06-14T10:32:34;3.13;;;2.60;;
20230;SDS011;10274;49.022;9.338;2023-06-14T10:35:02;4.55;;;2.67;;
20230;SDS011;10274;49.022;9.338;2023-06-14T10:37:31;5.45;;;2.70;;
20230;SDS011;10274;49.022;9.338;2023-06-14T10:39:59;3.10;;;2.72;;
20230;SDS011;10274;49.022;9.338;2023-06-14T10:42:27;3.13;;;2.33;;
20230;SDS011;10274;49.022;9.338;2023-06-14T10:44:57;3.08;;;2.65;;
20230;SDS011;10274;49.022;9.338;2023-06-14T10:47:27;3.93;;;2.50;;
20230;SDS011;10274;49.022;9.338;2023-06-14T10:49:54;2.85;;;2.50;;
20230;SDS011;10274;49.022;9.338;2023-06-14T10:52:24;2.80;;;2.03;;
20230;SDS011;10274;49.022;9.338;2023-06-14T10:55:04;3.97;;;2.25;;
20230;SDS011;10274;49.022;9.338;2023-06-14T10:57:36;4.18;;;2.33;;
20230;SDS011;10274;49.022;9.338;2023-06-14T11:00:05;3.83;;;2.17;;
20230;SDS011;10274;49.022;9.338;2023-06-14T11:05:51;2.70;;;2.50;;
20230;SDS011;10274;49.022;9.338;2023-06-14T11:08:27;3.03;;;2.30;;
20230;SDS011;10274;49.022;9.338;2023-06-14T11:11:06;2.40;;;2.20;;
20230;SDS011;10274;49.022;9.338;2023-06-14T11:13:34;3.38;;;2.72;;
20230;SDS011;10274;49.022;9.338;2023-06-14T11:16:09;5.47;;;2.45;;
20230;SDS011;10274;49.022;9.338;2023-06-14T11:18:37;2.72;;;2.53;;
20230;SDS011;10274;49.022;9.338;2023-06-14T11:21:05;2.55;;;2.35;;
20230;SDS011;10274;49.022;9.338;2023-06-14T11:23:31;3.45;;;2.38;;
20230;SDS011;10274;49.022;9.338;2023-06-14T11:25:58;3.03;;;2.72;;
20230;SDS011;10274;49.022;9.338;2023-06-14T11:28:34;4.07;;;3.78;;
20230;SDS011;10274;49.022;9.338;2023-06-14T11:31:02;2.75;;;2.55;;
20230;SDS011;10274;49.022;9.338;2023-06-14T11:33:30;3.95;;;2.40;;
20230;SDS011;10274;49.022;9.338;2023-06-14T11:35:56;2.60;;;2.40;;
20230;SDS011;10274;49.022;9.338;2023-06-14T11:38:25;2.80;;;2.60;;
20230;SDS011;10274;49.022;9.338;2023-06-14T11:40:52;2.60;;;2.40;;
20230;SDS011;10274;49.022;9.338;2023-06-14T11:43:19;2.60;;;2.40;;
20230;SDS011;10274;49.022;9.338;2023-06-14T11:45:47;3.13;;;2.70;;
20230;SDS011;10274;49.022;9.338;2023-06-14T11:48:15;3.40;;;2.80;;
20230;SDS011;10274;49.022;9.338;2023-06-14T11:50:41;3.22;;;2.40;;
20230;SDS011;10274;49.022;9.338;2023-06-14T11:53:08;2.67;;;2.47;;
20230;SDS011;10274;49.022;9.338;2023-06-14T11:55:37;3.00;;;2.60;;
20230;SDS011;10274;49.022;9.338;2023-06-14T11:58:05;2.60;;;2.40;;
20230;SDS011;10274;49.022;9.338;2023-06-14T12:00:32;2.70;;;2.50;;
20230;SDS011;10274;49.022;9.338;2023-06-14T12:03:01;3.50;;;2.80;;
20230;SDS011;10274;49.022;9.338;2023-06-14T12:05:28;4.68;;;2.50;;
20230;SDS011;10274;49.022;9.338;2023-06-14T12:07:58;2.90;;;2.60;;
20230;SDS011;10274;49.022;9.338;2023-06-14T12:10:26;2.88;;;2.50;;
20230;SDS011;10274;49.022;9.338;2023-06-14T12:12:57;6.45;;;2.40;;
20230;SDS011;10274;49.022;9.338;2023-06-14T12:15:27;3.17;;;2.67;;
20230;SDS011;10274;49.022;9.338;2023-06-14T12:17:55;3.58;;;2.83;;
20230;SDS011;10274;49.022;9.338;2023-06-14T12:20:21;2.30;;;2.10;;
20230;SDS011;10274;49.022;9.338;2023-06-14T12:22:52;3.78;;;2.38;;
20230;SDS011;10274;49.022;9.338;2023-06-14T12:25:25;3.88;;;2.70;;
20230;SDS011;10274;49.022;9.338;2023-06-14T12:27:53;3.17;;;2.53;;
20230;SDS011;10274;49.022;9.338;2023-06-14T12:30:22;4.97;;;2.75;;
20230;SDS011;10274;49.022;9.338;2023-06-14T12:32:49;3.38;;;2.53;;
20230;SDS011;10274;49.022;9.338;2023-06-14T12:35:16;2.70;;;2.10;;
20230;SDS011;10274;49.022;9.338;2023-06-14T12:37:43;3.75;;;1.98;;
20230;SDS011;10274;49.022;9.338;2023-06-14T12:40:11;2.38;;;2.15;;
20230;SDS011;10274;49.022;9.338;2023-06-14T12:42:38;2.63;;;2.17;;
20230;SDS011;10274;49.022;9.338;2023-06-14T12:45:04;2.90;;;2.60;;
20230;SDS011;10274;49.022;9.338;2023-06-14T12:47:33;2.38;;;2.10;;
20230;SDS011;10274;49.022;9.338;2023-06-14T12:50:00;2.53;;;2.30;;
20230;SDS011;10274;49.022;9.338;2023-06-14T12:52:27;2.42;;;2.20;;
20230;SDS011;10274;49.022;9.338;2023-06-14T12:54:54;3.92;;;2.30;;
20230;SDS011;10274;49.022;9.338;2023-06-14T12:57:20;4.75;;;2.58;;
20230;SDS011;10274;49.022;9.338;2023-06-14T12:59:47;2.65;;;2.45;;
20230;SDS011;10274;49.022;9.338;2023-06-14T13:02:15;2.60;;;2.40;;
20230;SDS011;10274;49.022;9.338;2023-06-14T13:04:44;3.17;;;2.67;;
20230;SDS011;10274;49.022;9.338;2023-06-14T13:07:10;2.72;;;2.47;;
20230;SDS011;10274;49.022;9.338;2023-06-14T13:09:37;3.08;;;2.58;;
20230;SDS011;10274;49.022;9.338;2023-06-14T13:12:04;2.60;;;2.40;;
20230;SDS011;10274;49.022;9.338;2023-06-14T13:14:31;2.58;;;2.08;;
20230;SDS011;10274;49.022;9.338;2023-06-14T13:16:58;3.03;;;2.45;;
20230;SDS011;10274;49.022;9.338;2023-06-14T13:19:25;2.60;;;2.40;;
20230;SDS011;10274;49.022;9.338;2023-06-14T13:21:53;3.30;;;2.33;;
20230;SDS011;10274;49.022;9.338;2023-06-14T13:24:19;2.83;;;2.15;;
20230;SDS011;10274;49.022;9.338;2023-06-14T13:26:46;2.60;;;2.40;;
20230;SDS011;10274;49.022;9.338;2023-06-14T13:29:13;3.75;;;2.53;;
20230;SDS011;10274;49.022;9.338;2023-06-14T13:31:39;2.75;;;2.42;;
20230;SDS011;10274;49.022;9.338;2023-06-14T13:34:06;2.50;;;2.30;;
20230;SDS011;10274;49.022;9.338;2023-06-14T13:36:33;3.25;;;2.30;;
20230;SDS011;10274;49.022;9.338;2023-06-14T13:39:01;6.05;;;3.53;;
20230;SDS011;10274;49.022;9.338;2023-06-14T13:41:28;2.60;;;2.30;;
20230;SDS011;10274;49.022;9.338;2023-06-14T13:43:58;5.00;;;2.60;;
20230;SDS011;10274;49.022;9.338;2023-06-14T13:46:25;13.40;;;3.30;;
20230;SDS011;10274;49.022;9.338;2023-06-14T13:48:52;5.07;;;3.00;;
20230;SDS011;10274;49.022;9.338;2023-06-14T13:51:19;3.03;;;2.53;;
20230;SDS011;10274;49.022;9.338;2023-06-14T13:53:46;2.90;;;2.42;;
20230;SDS011;10274;49.022;9.338;2023-06-14T13:56:15;2.88;;;2.60;;
20230;SDS011;10274;49.022;9.338;2023-06-14T13:58:42;2.60;;;2.20;;
20230;SDS011;10274;49.022;9.338;2023-06-14T14:01:09;3.10;;;2.58;;
20230;SDS011;10274;49.022;9.338;2023-06-14T14:03:36;2.70;;;2.47;;
20230;SDS011;10274;49.022;9.338;2023-06-14T14:06:03;3.63;;;2.50;;
20230;SDS011;10274;49.022;9.338;2023-06-14T14:08:30;3.45;;;2.60;;
20230;SDS011;10274;49.022;9.338;2023-06-14T14:10:57;3.17;;;2.35;;
20230;SDS011;10274;49.022;9.338;2023-06-14T14:13:25;3.08;;;2.13;;
20230;SDS011;10274;49.022;9.338;2023-06-14T14:15:52;3.38;;;2.53;;
20230;SDS011;10274;49.022;9.338;2023-06-14T14:18:19;2.92;;;2.63;;
20230;SDS011;10274;49.022;9.338;2023-06-14T14:20:46;3.40;;;2.47;;
20230;SDS011;10274;49.022;9.338;2023-06-14T14:23:13;3.38;;;2.47;;
20230;SDS011;10274;49.022;9.338;2023-06-14T14:25:40;3.33;;;2.70;;
20230;SDS011;10274;49.022;9.338;2023-06-14T14:28:07;3.70;;;2.80;;
20230;SDS011;10274;49.022;9.338;2023-06-14T14:30:35;2.50;;;2.30;;
20230;SDS011;10274;49.022;9.338;2023-06-14T14:33:04;3.58;;;2.78;;
20230;SDS011;10274;49.022;9.338;2023-06-14T14:35:31;3.17;;;2.50;;
20230;SDS011;10274;49.022;9.338;2023-06-14T14:37:58;2.80;;;2.40;;
20230;SDS011;10274;49.022;9.338;2023-06-14T14:40:25;2.92;;;2.53;;
20230;SDS011;10274;49.022;9.338;2023-06-14T14:42:52;4.78;;;2.80;;
20230;SDS011;10274;49.022;9.338;2023-06-14T14:45:19;2.80;;;2.60;;
20230;SDS011;10274;49.022;9.338;2023-06-14T14:47:47;3.05;;;2.38;;
20230;SDS011;10274;49.022;9.338;2023-06-14T14:50:14;3.55;;;2.55;;
20230;SDS011;10274;49.022;9.338;2023-06-14T14:52:41;3.07;;;2.53;;
20230;SDS011;10274;49.022;9.338;2023-06-14T14:55:08;2.63;;;2.42;;